sensor_id;sensor_type;location;lat;lon;timestamp;P1;durP1;ratioP1;P2;durP2;ratioP2
43150;SDS011;28755;51.478;5.702;2023-04-03T00:01:16;7.72;;;5.07;;
43150;SDS011;28755;51.478;5.702;2023-04-03T00:03:42;7.22;;;4.40;;
43150;SDS011;28755;51.478;5.702;2023-04-03T00:06:08;8.70;;;5.03;;
43150;SDS011;28755;51.478;5.702;2023-04-03T00:08:36;9.27;;;5.15;;
43150;SDS011;28755;51.478;5.702;2023-04-03T00:11:03;11.32;;;5.15;;
43150;SDS011;28755;51.478;5.702;2023-04-03T00:13:30;10.48;;;4.90;;
43150;SDS011;28755;51.478;5.702;2023-04-03T00:15:56;8.50;;;5.20;;
43150;SDS011;28755;51.478;5.702;2023-04-03T00:18:21;10.23;;;5.45;;
43150;SDS011;28755;51.478;5.702;2023-04-03T00:20:47;8.95;;;5.18;;
43150;SDS011;28755;51.478;5.702;2023-04-03T00:23:13;8.60;;;5.38;;
43150;SDS011;28755;51.478;5.702;2023-04-03T00:25:39;8.40;;;5.50;;
43150;SDS011;28755;51.478;5.702;2023-04-03T00:28:05;12.48;;;5.47;;
43150;SDS011;28755;51.478;5.702;2023-04-03T00:30:31;9.00;;;5.50;;
43150;SDS011;28755;51.478;5.702;2023-04-03T00:32:57;10.77;;;5.95;;
43150;SDS011;28755;51.478;5.702;2023-04-03T00:35:23;9.50;;;5.53;;
43150;SDS011;28755;51.478;5.702;2023-04-03T00:37:52;10.23;;;5.32;;
43150;SDS011;28755;51.478;5.702;2023-04-03T00:40:20;7.65;;;5.65;;
43150;SDS011;28755;51.478;5.702;2023-04-03T00:42:47;8.15;;;5.40;;
43150;SDS011;28755;51.478;5.702;2023-04-03T00:45:23;8.75;;;5.40;;
43150;SDS011;28755;51.478;5.702;2023-04-03T00:47:52;9.63;;;5.53;;
43150;SDS011;28755;51.478;5.702;2023-04-03T00:50:19;10.00;;;5.80;;
43150;SDS011;28755;51.478;5.702;2023-04-03T00:52:45;10.68;;;5.68;;
43150;SDS011;28755;51.478;5.702;2023-04-03T00:55:13;9.00;;;5.80;;
43150;SDS011;28755;51.478;5.702;2023-04-03T00:57:39;9.80;;;5.50;;
43150;SDS011;28755;51.478;5.702;2023-04-03T01:00:07;11.43;;;5.60;;
43150;SDS011;28755;51.478;5.702;2023-04-03T01:02:35;8.35;;;5.40;;
43150;SDS011;28755;51.478;5.702;2023-04-03T01:05:01;8.82;;;5.50;;
43150;SDS011;28755;51.478;5.702;2023-04-03T01:07:29;8.13;;;5.15;;
43150;SDS011;28755;51.478;5.702;2023-04-03T01:09:56;10.35;;;5.43;;
43150;SDS011;28755;51.478;5.702;2023-04-03T01:12:25;7.43;;;5.35;;
43150;SDS011;28755;51.478;5.702;2023-04-03T01:14:57;9.33;;;5.70;;
43150;SDS011;28755;51.478;5.702;2023-04-03T01:25:36;9.20;;;5.82;;
43150;SDS011;28755;51.478;5.702;2023-04-03T01:28:07;8.63;;;5.85;;
43150;SDS011;28755;51.478;5.702;2023-04-03T01:31:23;7.70;;;5.78;;
43150;SDS011;28755;51.478;5.702;2023-04-03T01:33:33;12.25;;;6.15;;
43150;SDS011;28755;51.478;5.702;2023-04-03T01:36:00;10.10;;;5.63;;
43150;SDS011;28755;51.478;5.702;2023-04-03T01:38:26;10.80;;;5.90;;
43150;SDS011;28755;51.478;5.702;2023-04-03T01:40:51;8.70;;;5.97;;
43150;SDS011;28755;51.478;5.702;2023-04-03T01:43:17;8.25;;;6.40;;
43150;SDS011;28755;51.478;5.702;2023-04-03T01:45:42;12.90;;;6.93;;
43150;SDS011;28755;51.478;5.702;2023-04-03T01:48:08;8.60;;;5.60;;
43150;SDS011;28755;51.478;5.702;2023-04-03T01:50:34;9.50;;;6.05;;
43150;SDS011;28755;51.478;5.702;2023-04-03T01:52:59;11.00;;;6.32;;
43150;SDS011;28755;51.478;5.702;2023-04-03T01:55:25;8.50;;;5.88;;
43150;SDS011;28755;51.478;5.702;2023-04-03T01:57:50;11.07;;;6.30;;
43150;SDS011;28755;51.478;5.702;2023-04-03T02:00:16;10.70;;;6.53;;
43150;SDS011;28755;51.478;5.702;2023-04-03T02:02:42;11.77;;;6.55;;
43150;SDS011;28755;51.478;5.702;2023-04-03T02:05:07;11.40;;;6.45;;
43150;SDS011;28755;51.478;5.702;2023-04-03T02:07:33;10.30;;;5.95;;
43150;SDS011;28755;51.478;5.702;2023-04-03T02:09:59;9.63;;;6.68;;
43150;SDS011;28755;51.478;5.702;2023-04-03T02:12:24;9.82;;;6.30;;
43150;SDS011;28755;51.478;5.702;2023-04-03T02:14:50;11.02;;;6.63;;
43150;SDS011;28755;51.478;5.702;2023-04-03T02:17:15;10.00;;;6.05;;
43150;SDS011;28755;51.478;5.702;2023-04-03T02:19:41;10.95;;;6.32;;
43150;SDS011;28755;51.478;5.702;2023-04-03T02:22:07;13.07;;;5.80;;
43150;SDS011;28755;51.478;5.702;2023-04-03T02:24:32;9.40;;;5.85;;
43150;SDS011;28755;51.478;5.702;2023-04-03T02:26:58;11.20;;;6.05;;
43150;SDS011;28755;51.478;5.702;2023-04-03T02:29:24;10.98;;;6.10;;
43150;SDS011;28755;51.478;5.702;2023-04-03T02:31:50;10.25;;;6.65;;
43150;SDS011;28755;51.478;5.702;2023-04-03T02:34:16;14.93;;;7.00;;
43150;SDS011;28755;51.478;5.702;2023-04-03T02:36:42;8.88;;;5.40;;
43150;SDS011;28755;51.478;5.702;2023-04-03T02:39:08;9.68;;;6.18;;
43150;SDS011;28755;51.478;5.702;2023-04-03T02:41:34;9.02;;;5.95;;
43150;SDS011;28755;51.478;5.702;2023-04-03T02:44:03;9.18;;;6.40;;
43150;SDS011;28755;51.478;5.702;2023-04-03T02:46:30;11.30;;;6.35;;
43150;SDS011;28755;51.478;5.702;2023-04-03T02:48:56;10.40;;;6.07;;
43150;SDS011;28755;51.478;5.702;2023-04-03T02:51:21;10.38;;;5.60;;
43150;SDS011;28755;51.478;5.702;2023-04-03T02:53:48;9.82;;;6.35;;
43150;SDS011;28755;51.478;5.702;2023-04-03T02:56:13;9.65;;;6.32;;
43150;SDS011;28755;51.478;5.702;2023-04-03T02:58:39;8.52;;;6.13;;
43150;SDS011;28755;51.478;5.702;2023-04-03T03:01:05;12.43;;;6.25;;
43150;SDS011;28755;51.478;5.702;2023-04-03T03:03:30;8.15;;;5.80;;
43150;SDS011;28755;51.478;5.702;2023-04-03T03:08:30;9.45;;;5.45;;
43150;SDS011;28755;51.478;5.702;2023-04-03T03:10:56;7.88;;;5.53;;
43150;SDS011;28755;51.478;5.702;2023-04-03T03:13:22;7.22;;;5.38;;
43150;SDS011;28755;51.478;5.702;2023-04-03T03:15:48;9.93;;;5.05;;
43150;SDS011;28755;51.478;5.702;2023-04-03T03:18:13;10.73;;;6.15;;
43150;SDS011;28755;51.478;5.702;2023-04-03T03:20:39;8.55;;;5.30;;
43150;SDS011;28755;51.478;5.702;2023-04-03T03:23:05;14.98;;;5.88;;
43150;SDS011;28755;51.478;5.702;2023-04-03T03:25:30;7.00;;;5.13;;
43150;SDS011;28755;51.478;5.702;2023-04-03T03:27:56;9.75;;;5.78;;
43150;SDS011;28755;51.478;5.702;2023-04-03T03:30:21;10.43;;;5.50;;
43150;SDS011;28755;51.478;5.702;2023-04-03T03:32:47;9.38;;;5.70;;
43150;SDS011;28755;51.478;5.702;2023-04-03T03:35:13;8.82;;;5.50;;
43150;SDS011;28755;51.478;5.702;2023-04-03T03:37:38;9.32;;;5.25;;
43150;SDS011;28755;51.478;5.702;2023-04-03T03:40:04;9.15;;;5.32;;
43150;SDS011;28755;51.478;5.702;2023-04-03T03:42:30;7.82;;;5.22;;
43150;SDS011;28755;51.478;5.702;2023-04-03T03:44:56;10.43;;;5.43;;
43150;SDS011;28755;51.478;5.702;2023-04-03T03:47:21;9.98;;;5.55;;
43150;SDS011;28755;51.478;5.702;2023-04-03T03:49:47;8.43;;;5.20;;
43150;SDS011;28755;51.478;5.702;2023-04-03T03:52:13;9.23;;;5.03;;
43150;SDS011;28755;51.478;5.702;2023-04-03T03:54:38;8.45;;;5.38;;
43150;SDS011;28755;51.478;5.702;2023-04-03T03:57:04;9.52;;;5.07;;
43150;SDS011;28755;51.478;5.702;2023-04-03T03:59:30;10.25;;;5.07;;
43150;SDS011;28755;51.478;5.702;2023-04-03T04:01:55;7.30;;;5.05;;
43150;SDS011;28755;51.478;5.702;2023-04-03T04:04:21;7.20;;;4.78;;
43150;SDS011;28755;51.478;5.702;2023-04-03T04:06:46;7.15;;;4.88;;
43150;SDS011;28755;51.478;5.702;2023-04-03T04:09:12;7.15;;;5.00;;
43150;SDS011;28755;51.478;5.702;2023-04-03T04:11:38;11.77;;;5.35;;
43150;SDS011;28755;51.478;5.702;2023-04-03T04:14:04;6.63;;;4.63;;
43150;SDS011;28755;51.478;5.702;2023-04-03T04:16:31;7.47;;;4.78;;
43150;SDS011;28755;51.478;5.702;2023-04-03T04:18:56;10.52;;;4.60;;
43150;SDS011;28755;51.478;5.702;2023-04-03T04:21:22;12.63;;;4.90;;
43150;SDS011;28755;51.478;5.702;2023-04-03T04:23:47;8.20;;;4.70;;
43150;SDS011;28755;51.478;5.702;2023-04-03T04:26:13;7.75;;;4.50;;
43150;SDS011;28755;51.478;5.702;2023-04-03T04:28:39;13.82;;;4.63;;
43150;SDS011;28755;51.478;5.702;2023-04-03T04:31:04;9.60;;;4.95;;
43150;SDS011;28755;51.478;5.702;2023-04-03T04:33:30;8.60;;;4.80;;
43150;SDS011;28755;51.478;5.702;2023-04-03T04:35:55;8.98;;;4.72;;
43150;SDS011;28755;51.478;5.702;2023-04-03T04:38:21;9.25;;;4.30;;
43150;SDS011;28755;51.478;5.702;2023-04-03T04:40:47;6.97;;;4.35;;
43150;SDS011;28755;51.478;5.702;2023-04-03T04:43:13;6.43;;;4.50;;
43150;SDS011;28755;51.478;5.702;2023-04-03T04:45:39;8.68;;;4.05;;
43150;SDS011;28755;51.478;5.702;2023-04-03T04:48:05;13.82;;;4.45;;
43150;SDS011;28755;51.478;5.702;2023-04-03T04:50:31;8.27;;;4.22;;
43150;SDS011;28755;51.478;5.702;2023-04-03T04:52:57;8.50;;;3.90;;
43150;SDS011;28755;51.478;5.702;2023-04-03T04:55:22;6.70;;;4.35;;
43150;SDS011;28755;51.478;5.702;2023-04-03T04:57:48;6.97;;;3.92;;
43150;SDS011;28755;51.478;5.702;2023-04-03T05:00:14;10.48;;;3.65;;
43150;SDS011;28755;51.478;5.702;2023-04-03T05:02:40;8.10;;;3.53;;
43150;SDS011;28755;51.478;5.702;2023-04-03T05:05:06;8.73;;;3.58;;
43150;SDS011;28755;51.478;5.702;2023-04-03T05:10:54;5.95;;;3.22;;
43150;SDS011;28755;51.478;5.702;2023-04-03T05:13:20;6.78;;;3.20;;
43150;SDS011;28755;51.478;5.702;2023-04-03T05:15:46;10.73;;;3.88;;
43150;SDS011;28755;51.478;5.702;2023-04-03T05:18:12;7.82;;;3.33;;
43150;SDS011;28755;51.478;5.702;2023-04-03T05:20:38;6.75;;;3.10;;
43150;SDS011;28755;51.478;5.702;2023-04-03T05:23:03;6.25;;;2.95;;
43150;SDS011;28755;51.478;5.702;2023-04-03T05:25:29;9.70;;;3.40;;
43150;SDS011;28755;51.478;5.702;2023-04-03T05:27:55;5.80;;;2.83;;
43150;SDS011;28755;51.478;5.702;2023-04-03T05:30:20;8.27;;;3.00;;
43150;SDS011;28755;51.478;5.702;2023-04-03T05:32:49;8.68;;;3.17;;
43150;SDS011;28755;51.478;5.702;2023-04-03T05:35:14;10.65;;;2.83;;
43150;SDS011;28755;51.478;5.702;2023-04-03T05:37:40;8.05;;;2.70;;
43150;SDS011;28755;51.478;5.702;2023-04-03T05:40:06;5.78;;;2.53;;
43150;SDS011;28755;51.478;5.702;2023-04-03T05:42:32;6.93;;;3.05;;
43150;SDS011;28755;51.478;5.702;2023-04-03T05:44:58;6.50;;;2.72;;
43150;SDS011;28755;51.478;5.702;2023-04-03T05:47:23;5.80;;;2.42;;
43150;SDS011;28755;51.478;5.702;2023-04-03T05:49:49;7.22;;;2.58;;
43150;SDS011;28755;51.478;5.702;2023-04-03T05:52:31;8.43;;;2.72;;
43150;SDS011;28755;51.478;5.702;2023-04-03T05:55:00;6.05;;;2.60;;
43150;SDS011;28755;51.478;5.702;2023-04-03T05:57:26;5.57;;;2.40;;
43150;SDS011;28755;51.478;5.702;2023-04-03T05:59:51;7.60;;;2.85;;
43150;SDS011;28755;51.478;5.702;2023-04-03T06:02:18;8.88;;;2.60;;
43150;SDS011;28755;51.478;5.702;2023-04-03T06:04:45;9.50;;;2.60;;
43150;SDS011;28755;51.478;5.702;2023-04-03T06:07:13;6.70;;;2.50;;
43150;SDS011;28755;51.478;5.702;2023-04-03T06:09:41;6.68;;;2.35;;
43150;SDS011;28755;51.478;5.702;2023-04-03T06:12:07;5.38;;;2.40;;
43150;SDS011;28755;51.478;5.702;2023-04-03T06:14:33;7.55;;;2.30;;
43150;SDS011;28755;51.478;5.702;2023-04-03T06:16:58;5.15;;;2.20;;
43150;SDS011;28755;51.478;5.702;2023-04-03T06:19:24;6.43;;;2.25;;
43150;SDS011;28755;51.478;5.702;2023-04-03T06:21:50;5.60;;;2.15;;
43150;SDS011;28755;51.478;5.702;2023-04-03T06:24:17;7.90;;;2.50;;
43150;SDS011;28755;51.478;5.702;2023-04-03T06:26:43;6.43;;;2.22;;
43150;SDS011;28755;51.478;5.702;2023-04-03T06:29:16;4.72;;;2.25;;
43150;SDS011;28755;51.478;5.702;2023-04-03T06:31:41;7.35;;;2.47;;
43150;SDS011;28755;51.478;5.702;2023-04-03T06:34:07;5.55;;;2.35;;
43150;SDS011;28755;51.478;5.702;2023-04-03T06:36:33;13.45;;;2.65;;
43150;SDS011;28755;51.478;5.702;2023-04-03T06:38:59;6.68;;;2.40;;
43150;SDS011;28755;51.478;5.702;2023-04-03T06:41:26;7.55;;;2.50;;
43150;SDS011;28755;51.478;5.702;2023-04-03T06:43:51;7.40;;;2.50;;
43150;SDS011;28755;51.478;5.702;2023-04-03T06:46:18;6.25;;;2.60;;
43150;SDS011;28755;51.478;5.702;2023-04-03T06:48:46;4.93;;;2.40;;
43150;SDS011;28755;51.478;5.702;2023-04-03T06:51:19;5.38;;;2.28;;
43150;SDS011;28755;51.478;5.702;2023-04-03T06:53:54;6.78;;;2.28;;
43150;SDS011;28755;51.478;5.702;2023-04-03T06:56:21;8.75;;;2.58;;
43150;SDS011;28755;51.478;5.702;2023-04-03T06:58:47;5.45;;;2.15;;
43150;SDS011;28755;51.478;5.702;2023-04-03T07:01:14;11.02;;;2.10;;
43150;SDS011;28755;51.478;5.702;2023-04-03T07:03:41;14.50;;;2.03;;
43150;SDS011;28755;51.478;5.702;2023-04-03T07:06:07;9.15;;;2.65;;
43150;SDS011;28755;51.478;5.702;2023-04-03T07:08:36;6.37;;;2.00;;
43150;SDS011;28755;51.478;5.702;2023-04-03T07:11:03;5.63;;;2.10;;
43150;SDS011;28755;51.478;5.702;2023-04-03T07:13:30;8.35;;;2.17;;
43150;SDS011;28755;51.478;5.702;2023-04-03T07:15:56;5.45;;;2.03;;
43150;SDS011;28755;51.478;5.702;2023-04-03T07:18:22;7.63;;;2.30;;
43150;SDS011;28755;51.478;5.702;2023-04-03T07:20:48;7.07;;;2.03;;
43150;SDS011;28755;51.478;5.702;2023-04-03T07:23:13;7.00;;;1.88;;
43150;SDS011;28755;51.478;5.702;2023-04-03T07:25:43;5.25;;;1.98;;
43150;SDS011;28755;51.478;5.702;2023-04-03T07:28:09;10.57;;;1.85;;
43150;SDS011;28755;51.478;5.702;2023-04-03T07:30:41;5.60;;;2.25;;
43150;SDS011;28755;51.478;5.702;2023-04-03T07:33:11;3.67;;;1.65;;
43150;SDS011;28755;51.478;5.702;2023-04-03T07:35:38;7.32;;;2.10;;
43150;SDS011;28755;51.478;5.702;2023-04-03T07:38:04;6.65;;;2.15;;
43150;SDS011;28755;51.478;5.702;2023-04-03T07:40:30;4.30;;;1.60;;
43150;SDS011;28755;51.478;5.702;2023-04-03T07:42:56;5.93;;;1.85;;
43150;SDS011;28755;51.478;5.702;2023-04-03T07:45:21;6.70;;;1.73;;
43150;SDS011;28755;51.478;5.702;2023-04-03T07:47:47;4.65;;;1.75;;
43150;SDS011;28755;51.478;5.702;2023-04-03T07:50:13;7.45;;;1.67;;
43150;SDS011;28755;51.478;5.702;2023-04-03T07:52:39;6.53;;;2.00;;
43150;SDS011;28755;51.478;5.702;2023-04-03T07:55:05;4.50;;;1.60;;
43150;SDS011;28755;51.478;5.702;2023-04-03T07:57:31;4.68;;;1.73;;
43150;SDS011;28755;51.478;5.702;2023-04-03T07:59:56;6.57;;;1.80;;
43150;SDS011;28755;51.478;5.702;2023-04-03T08:02:22;4.47;;;1.77;;
43150;SDS011;28755;51.478;5.702;2023-04-03T08:04:47;8.43;;;1.95;;
43150;SDS011;28755;51.478;5.702;2023-04-03T08:07:13;5.28;;;1.67;;
43150;SDS011;28755;51.478;5.702;2023-04-03T08:09:39;4.28;;;1.95;;
43150;SDS011;28755;51.478;5.702;2023-04-03T08:12:04;5.43;;;1.70;;
43150;SDS011;28755;51.478;5.702;2023-04-03T08:14:31;5.20;;;1.63;;
43150;SDS011;28755;51.478;5.702;2023-04-03T08:16:59;5.38;;;1.77;;
43150;SDS011;28755;51.478;5.702;2023-04-03T08:19:25;6.20;;;1.45;;
43150;SDS011;28755;51.478;5.702;2023-04-03T08:21:51;4.75;;;1.60;;
43150;SDS011;28755;51.478;5.702;2023-04-03T08:24:18;5.30;;;1.80;;
43150;SDS011;28755;51.478;5.702;2023-04-03T08:26:43;5.65;;;1.58;;
43150;SDS011;28755;51.478;5.702;2023-04-03T08:29:09;3.80;;;1.30;;
43150;SDS011;28755;51.478;5.702;2023-04-03T08:31:34;4.95;;;1.45;;
43150;SDS011;28755;51.478;5.702;2023-04-03T08:34:00;4.13;;;1.35;;
43150;SDS011;28755;51.478;5.702;2023-04-03T08:36:26;5.18;;;1.50;;
43150;SDS011;28755;51.478;5.702;2023-04-03T08:38:54;3.92;;;1.40;;
43150;SDS011;28755;51.478;5.702;2023-04-03T08:41:25;3.55;;;1.55;;
43150;SDS011;28755;51.478;5.702;2023-04-03T08:44:11;4.35;;;1.55;;
43150;SDS011;28755;51.478;5.702;2023-04-03T08:47:02;4.85;;;1.50;;
43150;SDS011;28755;51.478;5.702;2023-04-03T08:50:11;3.58;;;1.27;;
43150;SDS011;28755;51.478;5.702;2023-04-03T08:52:44;4.07;;;1.40;;
43150;SDS011;28755;51.478;5.702;2023-04-03T08:57:48;4.57;;;1.58;;
43150;SDS011;28755;51.478;5.702;2023-04-03T09:00:20;3.28;;;1.13;;
43150;SDS011;28755;51.478;5.702;2023-04-03T09:02:50;4.35;;;1.20;;
43150;SDS011;28755;51.478;5.702;2023-04-03T09:05:40;2.55;;;1.00;;
43150;SDS011;28755;51.478;5.702;2023-04-03T09:08:30;3.38;;;0.95;;
43150;SDS011;28755;51.478;5.702;2023-04-03T09:19:45;3.42;;;1.05;;
43150;SDS011;28755;51.478;5.702;2023-04-03T09:22:11;2.20;;;1.15;;
43150;SDS011;28755;51.478;5.702;2023-04-03T09:24:42;4.50;;;1.00;;
43150;SDS011;28755;51.478;5.702;2023-04-03T09:27:11;2.67;;;1.00;;
43150;SDS011;28755;51.478;5.702;2023-04-03T09:29:39;4.03;;;1.20;;
43150;SDS011;28755;51.478;5.702;2023-04-03T09:32:30;6.65;;;1.30;;
43150;SDS011;28755;51.478;5.702;2023-04-03T09:34:59;2.17;;;1.00;;
43150;SDS011;28755;51.478;5.702;2023-04-03T09:37:36;2.42;;;1.08;;
43150;SDS011;28755;51.478;5.702;2023-04-03T09:40:05;4.00;;;0.80;;
43150;SDS011;28755;51.478;5.702;2023-04-03T09:42:58;2.05;;;0.90;;
43150;SDS011;28755;51.478;5.702;2023-04-03T09:45:29;5.22;;;0.85;;
43150;SDS011;28755;51.478;5.702;2023-04-03T09:50:53;3.25;;;0.85;;
43150;SDS011;28755;51.478;5.702;2023-04-03T09:53:28;2.80;;;0.95;;
43150;SDS011;28755;51.478;5.702;2023-04-03T09:56:27;5.90;;;0.77;;
43150;SDS011;28755;51.478;5.702;2023-04-03T10:01:38;2.58;;;0.73;;
43150;SDS011;28755;51.478;5.702;2023-04-03T10:04:08;1.83;;;0.70;;
43150;SDS011;28755;51.478;5.702;2023-04-03T10:06:39;2.05;;;0.60;;
43150;SDS011;28755;51.478;5.702;2023-04-03T10:14:35;3.47;;;1.08;;
43150;SDS011;28755;51.478;5.702;2023-04-03T10:20:03;2.45;;;0.80;;
43150;SDS011;28755;51.478;5.702;2023-04-03T10:27:53;2.65;;;0.90;;
43150;SDS011;28755;51.478;5.702;2023-04-03T10:30:51;2.28;;;0.70;;
43150;SDS011;28755;51.478;5.702;2023-04-03T10:38:48;2.58;;;0.60;;
43150;SDS011;28755;51.478;5.702;2023-04-03T10:44:38;2.15;;;0.60;;
43150;SDS011;28755;51.478;5.702;2023-04-03T10:47:24;2.25;;;0.70;;
43150;SDS011;28755;51.478;5.702;2023-04-03T10:50:12;3.50;;;0.80;;
43150;SDS011;28755;51.478;5.702;2023-04-03T10:55:36;2.03;;;0.68;;
43150;SDS011;28755;51.478;5.702;2023-04-03T10:58:08;2.67;;;0.88;;
43150;SDS011;28755;51.478;5.702;2023-04-03T11:00:54;1.65;;;0.63;;
43150;SDS011;28755;51.478;5.702;2023-04-03T11:03:36;2.20;;;0.73;;
43150;SDS011;28755;51.478;5.702;2023-04-03T11:06:07;2.10;;;0.80;;
43150;SDS011;28755;51.478;5.702;2023-04-03T11:08:55;2.97;;;0.60;;
43150;SDS011;28755;51.478;5.702;2023-04-03T11:11:25;2.83;;;0.90;;
43150;SDS011;28755;51.478;5.702;2023-04-03T11:14:05;1.42;;;0.70;;
43150;SDS011;28755;51.478;5.702;2023-04-03T11:16:42;1.50;;;0.60;;
43150;SDS011;28755;51.478;5.702;2023-04-03T11:19:17;1.90;;;0.80;;
43150;SDS011;28755;51.478;5.702;2023-04-03T11:21:56;2.40;;;0.70;;
43150;SDS011;28755;51.478;5.702;2023-04-03T11:24:27;2.67;;;0.70;;
43150;SDS011;28755;51.478;5.702;2023-04-03T11:26:56;1.10;;;0.70;;
43150;SDS011;28755;51.478;5.702;2023-04-03T11:29:27;2.65;;;0.73;;
43150;SDS011;28755;51.478;5.702;2023-04-03T11:34:34;1.85;;;0.70;;
43150;SDS011;28755;51.478;5.702;2023-04-03T11:37:13;1.35;;;0.60;;
43150;SDS011;28755;51.478;5.702;2023-04-03T11:39:52;2.35;;;0.90;;
43150;SDS011;28755;51.478;5.702;2023-04-03T11:47:49;1.77;;;0.80;;
43150;SDS011;28755;51.478;5.702;2023-04-03T11:50:39;2.28;;;0.88;;
43150;SDS011;28755;51.478;5.702;2023-04-03T12:13:34;3.50;;;0.80;;
43150;SDS011;28755;51.478;5.702;2023-04-03T12:16:00;4.90;;;0.90;;
43150;SDS011;28755;51.478;5.702;2023-04-03T12:18:40;2.63;;;0.80;;
43150;SDS011;28755;51.478;5.702;2023-04-03T12:26:34;2.03;;;0.93;;
43150;SDS011;28755;51.478;5.702;2023-04-03T12:37:02;4.10;;;0.98;;
43150;SDS011;28755;51.478;5.702;2023-04-03T12:39:37;4.00;;;1.08;;
43150;SDS011;28755;51.478;5.702;2023-04-03T12:42:29;2.10;;;0.73;;
43150;SDS011;28755;51.478;5.702;2023-04-03T12:45:20;3.97;;;1.13;;
43150;SDS011;28755;51.478;5.702;2023-04-03T12:47:51;2.45;;;0.82;;
43150;SDS011;28755;51.478;5.702;2023-04-03T12:50:27;3.28;;;1.10;;
43150;SDS011;28755;51.478;5.702;2023-04-03T12:55:31;4.25;;;1.10;;
43150;SDS011;28755;51.478;5.702;2023-04-03T12:57:57;3.47;;;1.00;;
43150;SDS011;28755;51.478;5.702;2023-04-03T13:00:38;6.00;;;1.30;;
43150;SDS011;28755;51.478;5.702;2023-04-03T13:03:05;7.63;;;1.00;;
43150;SDS011;28755;51.478;5.702;2023-04-03T13:05:32;3.80;;;1.00;;
43150;SDS011;28755;51.478;5.702;2023-04-03T13:08:00;2.78;;;0.95;;
43150;SDS011;28755;51.478;5.702;2023-04-03T13:10:30;2.92;;;1.00;;
43150;SDS011;28755;51.478;5.702;2023-04-03T13:12:58;4.47;;;1.15;;
43150;SDS011;28755;51.478;5.702;2023-04-03T13:15:42;2.83;;;1.40;;
43150;SDS011;28755;51.478;5.702;2023-04-03T13:20:51;1.98;;;1.00;;
43150;SDS011;28755;51.478;5.702;2023-04-03T13:23:17;2.30;;;1.20;;
43150;SDS011;28755;51.478;5.702;2023-04-03T13:25:46;3.78;;;1.25;;
43150;SDS011;28755;51.478;5.702;2023-04-03T13:28:13;2.75;;;1.05;;
43150;SDS011;28755;51.478;5.702;2023-04-03T13:30:46;5.22;;;1.33;;
43150;SDS011;28755;51.478;5.702;2023-04-03T13:33:27;2.47;;;1.10;;
43150;SDS011;28755;51.478;5.702;2023-04-03T13:36:13;3.15;;;1.27;;
43150;SDS011;28755;51.478;5.702;2023-04-03T13:38:43;4.55;;;1.38;;
43150;SDS011;28755;51.478;5.702;2023-04-03T13:41:29;3.00;;;0.85;;
43150;SDS011;28755;51.478;5.702;2023-04-03T13:46:47;2.88;;;1.17;;
43150;SDS011;28755;51.478;5.702;2023-04-03T13:51:58;2.88;;;1.15;;
43150;SDS011;28755;51.478;5.702;2023-04-03T13:54:28;4.15;;;1.10;;
43150;SDS011;28755;51.478;5.702;2023-04-03T13:59:27;3.63;;;1.38;;
43150;SDS011;28755;51.478;5.702;2023-04-03T14:04:31;4.18;;;1.38;;
43150;SDS011;28755;51.478;5.702;2023-04-03T14:07:21;3.35;;;1.33;;
43150;SDS011;28755;51.478;5.702;2023-04-03T14:09:47;4.47;;;1.08;;
43150;SDS011;28755;51.478;5.702;2023-04-03T14:15:03;2.58;;;1.20;;
43150;SDS011;28755;51.478;5.702;2023-04-03T14:17:32;2.30;;;1.23;;
43150;SDS011;28755;51.478;5.702;2023-04-03T14:19:58;2.20;;;1.20;;
43150;SDS011;28755;51.478;5.702;2023-04-03T14:22:27;5.15;;;1.25;;
43150;SDS011;28755;51.478;5.702;2023-04-03T14:24:56;2.55;;;1.15;;
43150;SDS011;28755;51.478;5.702;2023-04-03T14:27:33;4.65;;;1.30;;
43150;SDS011;28755;51.478;5.702;2023-04-03T14:30:01;4.70;;;1.80;;
43150;SDS011;28755;51.478;5.702;2023-04-03T14:32:28;5.93;;;1.45;;
43150;SDS011;28755;51.478;5.702;2023-04-03T14:34:54;3.97;;;1.35;;
43150;SDS011;28755;51.478;5.702;2023-04-03T14:37:23;4.63;;;1.48;;
43150;SDS011;28755;51.478;5.702;2023-04-03T14:39:52;3.67;;;1.00;;
43150;SDS011;28755;51.478;5.702;2023-04-03T14:42:20;2.92;;;1.20;;
43150;SDS011;28755;51.478;5.702;2023-04-03T14:44:48;5.82;;;1.27;;
43150;SDS011;28755;51.478;5.702;2023-04-03T14:47:15;4.38;;;1.38;;
43150;SDS011;28755;51.478;5.702;2023-04-03T14:49:45;3.05;;;1.17;;
43150;SDS011;28755;51.478;5.702;2023-04-03T14:52:21;3.60;;;1.08;;
43150;SDS011;28755;51.478;5.702;2023-04-03T14:54:54;2.80;;;1.15;;
43150;SDS011;28755;51.478;5.702;2023-04-03T14:57:21;3.75;;;1.23;;
43150;SDS011;28755;51.478;5.702;2023-04-03T14:59:50;3.15;;;1.20;;
43150;SDS011;28755;51.478;5.702;2023-04-03T15:02:29;5.30;;;1.42;;
43150;SDS011;28755;51.478;5.702;2023-04-03T15:04:57;4.88;;;1.45;;
43150;SDS011;28755;51.478;5.702;2023-04-03T15:07:23;4.43;;;1.33;;
43150;SDS011;28755;51.478;5.702;2023-04-03T15:09:51;3.65;;;1.35;;
43150;SDS011;28755;51.478;5.702;2023-04-03T15:12:17;2.70;;;1.20;;
43150;SDS011;28755;51.478;5.702;2023-04-03T15:14:43;4.20;;;1.50;;
43150;SDS011;28755;51.478;5.702;2023-04-03T15:17:11;3.33;;;1.17;;
43150;SDS011;28755;51.478;5.702;2023-04-03T15:19:41;3.65;;;1.25;;
43150;SDS011;28755;51.478;5.702;2023-04-03T15:22:09;3.15;;;1.10;;
43150;SDS011;28755;51.478;5.702;2023-04-03T15:24:38;3.20;;;1.30;;
43150;SDS011;28755;51.478;5.702;2023-04-03T15:27:04;4.63;;;1.33;;
43150;SDS011;28755;51.478;5.702;2023-04-03T15:29:29;3.55;;;1.58;;
43150;SDS011;28755;51.478;5.702;2023-04-03T15:31:55;2.83;;;1.50;;
43150;SDS011;28755;51.478;5.702;2023-04-03T15:34:21;2.63;;;1.33;;
43150;SDS011;28755;51.478;5.702;2023-04-03T15:36:46;3.55;;;1.50;;
43150;SDS011;28755;51.478;5.702;2023-04-03T15:39:12;6.22;;;1.50;;
43150;SDS011;28755;51.478;5.702;2023-04-03T15:41:38;4.07;;;1.40;;
43150;SDS011;28755;51.478;5.702;2023-04-03T15:44:03;2.80;;;1.20;;
43150;SDS011;28755;51.478;5.702;2023-04-03T15:46:29;3.42;;;1.30;;
43150;SDS011;28755;51.478;5.702;2023-04-03T15:48:55;3.75;;;1.40;;
43150;SDS011;28755;51.478;5.702;2023-04-03T15:51:20;2.67;;;1.17;;
43150;SDS011;28755;51.478;5.702;2023-04-03T15:53:46;4.50;;;1.30;;
43150;SDS011;28755;51.478;5.702;2023-04-03T15:56:11;3.65;;;1.08;;
43150;SDS011;28755;51.478;5.702;2023-04-03T15:58:37;2.85;;;1.08;;
43150;SDS011;28755;51.478;5.702;2023-04-03T16:01:02;3.50;;;1.20;;
43150;SDS011;28755;51.478;5.702;2023-04-03T16:03:28;3.17;;;1.08;;
43150;SDS011;28755;51.478;5.702;2023-04-03T16:05:54;3.70;;;1.20;;
43150;SDS011;28755;51.478;5.702;2023-04-03T16:08:20;3.22;;;1.25;;
43150;SDS011;28755;51.478;5.702;2023-04-03T16:10:46;3.05;;;1.30;;
43150;SDS011;28755;51.478;5.702;2023-04-03T16:13:12;2.50;;;1.13;;
43150;SDS011;28755;51.478;5.702;2023-04-03T16:15:39;2.50;;;1.38;;
43150;SDS011;28755;51.478;5.702;2023-04-03T16:18:05;3.80;;;1.38;;
43150;SDS011;28755;51.478;5.702;2023-04-03T16:20:30;3.33;;;1.13;;
43150;SDS011;28755;51.478;5.702;2023-04-03T16:22:57;5.10;;;1.30;;
43150;SDS011;28755;51.478;5.702;2023-04-03T16:25:24;5.60;;;1.40;;
43150;SDS011;28755;51.478;5.702;2023-04-03T16:27:51;3.72;;;1.15;;
43150;SDS011;28755;51.478;5.702;2023-04-03T16:30:17;4.72;;;1.65;;
43150;SDS011;28755;51.478;5.702;2023-04-03T16:32:42;3.38;;;1.27;;
43150;SDS011;28755;51.478;5.702;2023-04-03T16:35:09;5.45;;;1.55;;
43150;SDS011;28755;51.478;5.702;2023-04-03T16:37:35;5.70;;;1.90;;
43150;SDS011;28755;51.478;5.702;2023-04-03T16:40:01;4.97;;;1.40;;
43150;SDS011;28755;51.478;5.702;2023-04-03T16:42:28;4.53;;;1.33;;
43150;SDS011;28755;51.478;5.702;2023-04-03T16:44:53;3.95;;;1.30;;
43150;SDS011;28755;51.478;5.702;2023-04-03T16:47:19;4.65;;;1.02;;
43150;SDS011;28755;51.478;5.702;2023-04-03T16:49:45;5.45;;;1.17;;
43150;SDS011;28755;51.478;5.702;2023-04-03T16:52:11;6.50;;;1.20;;